Time;durP1;ratioP1;P1;durP2;ratioP2;P2;SDS_P1;SDS_P2;PMS_P1;PMS_P2;Temp;Humidity;BMP_temperature;BMP_pressure;BME280_temperature;BME280_humidity;BME280_pressure;Samples;Min_cycle;Max_cycle;Signal;HPM_P1;HPM_P2
2023/09/30 00:00:02;;;;;;;6.47;3.55;;;;;;;10.79;100.00;102488.31;6256086;22;20027;-90
2023/09/30 00:02:36;;;;;;;7.82;3.90;;;;;;;10.80;100.00;102507.69;6283347;22;20528;-89
2023/09/30 00:05:03;;;;;;;15.02;4.45;;;;;;;10.80;100.00;102511.09;6255203;22;20019;-89
2023/09/30 00:07:31;;;;;;;7.80;4.50;;;;;;;10.80;100.00;102508.44;6254804;22;20016;-88
2023/09/30 00:09:58;;;;;;;9.73;4.15;;;;;;;10.81;100.00;102514.53;6254751;22;20016;-88
2023/09/30 00:12:25;;;;;;;10.10;4.70;;;;;;;10.79;100.00;102514.94;6253613;22;20115;-89
2023/09/30 00:14:52;;;;;;;9.40;4.47;;;;;;;10.80;100.00;102516.44;6281403;22;20023;-89
2023/09/30 00:17:19;;;;;;;9.30;4.80;;;;;;;10.78;100.00;102505.44;6278953;22;20020;-87
2023/09/30 00:19:45;;;;;;;7.90;4.70;;;;;;;10.78;100.00;102500.13;6279094;22;20800;-88
2023/09/30 00:22:12;;;;;;;9.57;4.18;;;;;;;10.78;100.00;102502.78;6252791;22;20040;-87
2023/09/30 00:24:39;;;;;;;8.93;5.03;;;;;;;10.78;100.00;102504.69;6280288;22;20454;-86
2023/09/30 00:27:06;;;;;;;8.07;4.15;;;;;;;10.77;100.00;102509.25;6279245;22;20016;-86
2023/09/30 00:29:33;;;;;;;5.85;3.92;;;;;;;10.78;100.00;102504.69;6252550;22;20020;-86
2023/09/30 00:32:01;;;;;;;9.38;4.70;;;;;;;10.75;100.00;102511.56;6278785;22;20078;-86
2023/09/30 00:34:27;;;;;;;5.40;4.55;;;;;;;10.75;100.00;102513.47;6279805;22;20016;-86
2023/09/30 00:36:54;;;;;;;7.45;4.00;;;;;;;10.73;100.00;102515.78;6280425;22;20016;-86
2023/09/30 00:39:20;;;;;;;4.88;3.35;;;;;;;10.71;100.00;102515.41;6278089;22;20043;-86
2023/09/30 00:41:47;;;;;;;6.40;2.83;;;;;;;10.67;100.00;102528.78;6278370;22;20020;-86
2023/09/30 00:44:14;;;;;;;8.35;3.30;;;;;;;10.64;100.00;102525.00;6277794;22;20027;-86
2023/09/30 00:46:42;;;;;;;6.22;3.10;;;;;;;10.67;100.00;102534.09;6278482;22;20361;-86
2023/09/30 00:49:10;;;;;;;5.85;3.60;;;;;;;10.69;100.00;102537.13;6280131;22;20022;-86
2023/09/30 00:51:38;;;;;;;11.25;3.47;;;;;;;10.69;100.00;102545.88;6252724;22;20031;-86
2023/09/30 00:54:06;;;;;;;8.57;3.70;;;;;;;10.67;100.00;102544.75;6280403;22;20051;-87
2023/09/30 00:56:33;;;;;;;9.43;3.88;;;;;;;10.67;100.00;102542.09;6278714;22;20012;-86
2023/09/30 00:59:00;;;;;;;5.25;3.83;;;;;;;10.67;100.00;102545.50;6277725;22;20446;-87
2023/09/30 01:01:27;;;;;;;10.20;4.25;;;;;;;10.65;100.00;102547.81;6278271;22;20023;-87
2023/09/30 01:03:54;;;;;;;5.78;3.90;;;;;;;10.65;100.00;102539.81;6279202;22;20012;-87
2023/09/30 01:06:22;;;;;;;5.53;3.90;;;;;;;10.66;100.00;102545.91;6278917;22;20024;-87
2023/09/30 01:08:49;;;;;;;10.45;4.13;;;;;;;10.67;100.00;102548.19;6281208;22;20023;-87
2023/09/30 01:11:16;;;;;;;5.65;3.92;;;;;;;10.67;100.00;102556.16;6278745;22;20418;-88
2023/09/30 01:13:44;;;;;;;7.60;4.25;;;;;;;10.64;100.00;102554.28;6279963;22;20047;-88
2023/09/30 01:16:11;;;;;;;7.32;3.90;;;;;;;10.63;100.00;102544.78;6278640;22;20777;-86
2023/09/30 01:18:42;;;;;;;8.15;4.55;;;;;;;10.60;100.00;102542.91;6279607;22;20020;-87
2023/09/30 01:21:10;;;;;;;5.88;4.07;;;;;;;10.56;100.00;102542.19;6280024;22;20026;-87
2023/09/30 01:23:38;;;;;;;8.55;3.92;;;;;;;10.52;100.00;102552.13;6279459;22;20099;-87
2023/09/30 01:26:11;;;;;;;6.43;3.88;;;;;;;10.52;100.00;102562.75;6279949;22;20016;-87
2023/09/30 01:28:39;;;;;;;4.43;3.97;;;;;;;10.50;100.00;102570.41;6253782;22;20016;-86
2023/09/30 01:31:06;;;;;;;7.13;3.85;;;;;;;10.47;100.00;102575.75;6281585;22;20016;-86
2023/09/30 01:33:35;;;;;;;6.05;3.42;;;;;;;10.47;100.00;102579.16;6281609;22;20016;-87
2023/09/30 01:36:03;;;;;;;6.88;3.90;;;;;;;10.49;100.00;102565.47;6279867;22;20024;-86
2023/09/30 01:38:29;;;;;;;7.40;4.28;;;;;;;10.50;100.00;102573.06;6280011;22;20031;-86
2023/09/30 01:40:56;;;;;;;6.18;3.80;;;;;;;10.50;100.00;102562.41;6282134;22;20016;-88
2023/09/30 01:43:26;;;;;;;6.70;3.90;;;;;;;10.49;100.00;102560.13;6279012;22;20013;-87
2023/09/30 01:45:53;;;;;;;6.53;4.20;;;;;;;10.49;100.00;102560.91;6279758;22;20020;-88
2023/09/30 01:48:20;;;;;;;6.43;3.85;;;;;;;10.47;100.00;102559.78;6279408;22;20020;-88
2023/09/30 01:50:47;;;;;;;8.75;4.43;;;;;;;10.48;100.00;102566.59;6279885;22;20226;-88
2023/09/30 01:53:14;;;;;;;7.40;4.30;;;;;;;10.49;100.00;102568.13;6279471;22;20026;-88
2023/09/30 01:55:41;;;;;;;9.05;4.75;;;;;;;10.49;100.00;102565.47;6279514;22;20027;-88
2023/09/30 01:58:11;;;;;;;6.22;4.30;;;;;;;10.50;100.00;102559.75;6253267;22;20020;-88
2023/09/30 02:00:38;;;;;;;8.32;4.50;;;;;;;10.49;100.00;102550.25;6279344;22;20521;-88
2023/09/30 02:03:05;;;;;;;11.77;4.60;;;;;;;10.49;100.00;102541.50;6281592;22;20070;-88
2023/09/30 02:05:32;;;;;;;6.07;4.50;;;;;;;10.46;100.00;102544.94;6254131;22;20146;-88
2023/09/30 02:07:59;;;;;;;7.50;4.32;;;;;;;10.44;100.00;102541.91;6281402;22;20440;-87
2023/09/30 02:10:26;;;;;;;8.38;4.93;;;;;;;10.42;100.00;102547.63;6280962;22;20024;-88
2023/09/30 02:12:53;;;;;;;7.55;4.93;;;;;;;10.41;100.00;102545.38;6253811;22;20012;-88
2023/09/30 02:15:20;;;;;;;8.52;4.88;;;;;;;10.42;100.00;102552.22;6254524;22;20016;-89
2023/09/30 02:17:48;;;;;;;8.65;5.30;;;;;;;10.39;100.00;102559.09;6280797;22;20012;-89
2023/09/30 02:20:21;;;;;;;9.48;5.47;;;;;;;10.38;100.00;102559.50;6254724;22;20470;-88
2023/09/30 02:22:48;;;;;;;9.25;5.50;;;;;;;10.37;100.00;102555.31;6280316;22;20012;-89
2023/09/30 02:25:15;;;;;;;10.07;5.88;;;;;;;10.35;100.00;102556.47;6254682;22;20020;-88
2023/09/30 02:27:42;;;;;;;9.40;5.05;;;;;;;10.34;100.00;102554.94;6254146;22;20409;-87
2023/09/30 02:30:10;;;;;;;9.18;5.20;;;;;;;10.35;100.00;102561.03;6279442;22;20020;-88
2023/09/30 02:32:39;;;;;;;14.45;5.93;;;;;;;10.38;100.00;102560.25;6254259;22;20753;-87
2023/09/30 02:35:07;;;;;;;12.73;5.70;;;;;;;10.39;100.00;102561.00;6279624;22;20072;-87
2023/09/30 02:37:37;;;;;;;7.70;5.50;;;;;;;10.41;100.00;102553.34;6254229;22;20016;-88
2023/09/30 02:40:09;;;;;;;9.13;5.53;;;;;;;10.44;100.00;102553.31;6279404;22;20024;-88
2023/09/30 02:42:40;;;;;;;10.57;5.82;;;;;;;10.46;100.00;102551.03;6254597;22;20116;-88
2023/09/30 02:45:08;;;;;;;10.52;5.78;;;;;;;10.47;100.00;102541.13;6280541;22;20012;-89
2023/09/30 02:47:36;;;;;;;11.75;6.35;;;;;;;10.48;100.00;102546.06;6281721;22;20020;-88
2023/09/30 02:50:08;;;;;;;12.57;5.40;;;;;;;10.53;100.00;102547.53;6255046;22;20075;-89
2023/09/30 02:52:34;;;;;;;8.82;5.93;;;;;;;10.53;100.00;102535.00;6282151;22;20051;-89
2023/09/30 02:55:03;;;;;;;8.98;6.57;;;;;;;10.55;100.00;102535.34;6280361;22;20098;-89
2023/09/30 02:57:31;;;;;;;11.98;6.38;;;;;;;10.55;100.00;102538.00;6280054;22;20357;-88
2023/09/30 03:00:00;;;;;;;10.00;6.68;;;;;;;10.56;100.00;102541.44;6254658;22;20806;-88
2023/09/30 03:02:28;;;;;;;8.88;6.22;;;;;;;10.58;100.00;102539.88;6281878;22;20017;-88
2023/09/30 03:04:54;;;;;;;15.13;6.53;;;;;;;10.61;100.00;102533.03;6281154;22;20022;-88
2023/09/30 03:07:21;;;;;;;11.43;6.68;;;;;;;10.65;100.00;102539.06;6254805;22;20017;-89
2023/09/30 03:09:48;;;;;;;11.18;6.90;;;;;;;10.68;100.00;102543.59;6254716;22;20055;-88
2023/09/30 03:12:14;;;;;;;10.20;6.32;;;;;;;10.72;100.00;102547.00;6280738;22;20016;-89
2023/09/30 03:14:42;;;;;;;10.75;6.60;;;;;;;10.76;100.00;102545.06;6254971;22;20020;-88
2023/09/30 03:17:11;;;;;;;9.32;5.95;;;;;;;10.80;100.00;102542.31;6255035;22;20013;-88
2023/09/30 03:19:38;;;;;;;10.15;6.82;;;;;;;10.82;100.00;102543.44;6255766;22;20875;-88
2023/09/30 03:22:10;;;;;;;14.10;7.20;;;;;;;10.82;100.00;102535.44;6281634;22;20110;-88
2023/09/30 03:24:39;;;;;;;9.85;6.97;;;;;;;10.82;100.00;102535.44;6281441;22;20008;-87
2023/09/30 03:27:07;;;;;;;17.52;7.43;;;;;;;10.84;100.00;102535.06;6254397;22;20532;-87
2023/09/30 03:29:38;;;;;;;11.30;6.90;;;;;;;10.83;100.00;102531.63;6281622;22;20016;-87
2023/09/30 03:32:05;;;;;;;10.00;7.07;;;;;;;10.84;100.00;102533.13;6282117;22;20013;-88
2023/09/30 03:34:32;;;;;;;10.02;7.43;;;;;;;10.83;100.00;102534.28;6280306;22;20052;-88
2023/09/30 03:36:58;;;;;;;14.43;7.40;;;;;;;10.84;100.00;102543.03;6280906;22;20012;-88
2023/09/30 03:39:27;;;;;;;11.20;7.07;;;;;;;10.85;100.00;102541.88;6281494;22;20872;-88
2023/09/30 03:41:56;;;;;;;13.00;8.23;;;;;;;10.85;100.00;102532.00;6283335;22;20021;-89
2023/09/30 03:44:25;;;;;;;9.80;7.80;;;;;;;10.86;100.00;102536.16;6281667;22;20047;-89
2023/09/30 03:46:52;;;;;;;11.77;7.60;;;;;;;10.86;100.00;102541.50;6281460;22;20012;-89
2023/09/30 03:49:19;;;;;;;9.02;7.13;;;;;;;10.87;100.00;102532.34;6280741;22;20409;-88
2023/09/30 03:51:46;;;;;;;14.90;7.88;;;;;;;10.87;100.00;102540.34;6256526;22;20013;-88
2023/09/30 03:54:13;;;;;;;11.57;8.15;;;;;;;10.88;100.00;102538.44;6281239;22;20409;-88
2023/09/30 03:56:41;;;;;;;12.23;8.48;;;;;;;10.89;100.00;102540.69;6280321;22;20758;-88
2023/09/30 03:59:08;;;;;;;11.05;8.10;;;;;;;10.89;100.00;102540.69;6281757;22;20476;-88
2023/09/30 04:01:39;;;;;;;12.98;8.68;;;;;;;10.89;100.00;102539.94;6265890;22;20019;-89
2023/09/30 04:04:09;;;;;;;14.73;8.13;;;;;;;10.89;100.00;102538.03;6287574;22;20023;-88
2023/09/30 04:06:40;;;;;;;11.35;7.97;;;;;;;10.90;100.00;102536.88;6289162;22;20103;-89
2023/09/30 04:09:09;;;;;;;12.93;9.55;;;;;;;10.90;100.00;102544.13;6284471;22;20026;-89
2023/09/30 04:11:37;;;;;;;16.63;9.45;;;;;;;10.90;100.00;102546.78;6284468;22;20020;-89
2023/09/30 04:14:07;;;;;;;13.73;9.30;;;;;;;10.91;100.00;102540.31;6283416;22;20036;-89
2023/09/30 04:16:37;;;;;;;13.38;9.10;;;;;;;10.89;100.00;102539.94;6256725;22;20101;-89
2023/09/30 04:19:04;;;;;;;16.83;9.57;;;;;;;10.89;100.00;102548.69;6287176;22;20031;-88
2023/09/30 04:21:34;;;;;;;14.52;9.65;;;;;;;10.87;100.00;102548.34;6290298;22;20004;-89
2023/09/30 04:24:01;;;;;;;14.38;10.65;;;;;;;10.89;100.00;102546.03;6263739;22;20023;-89
2023/09/30 04:26:28;;;;;;;13.73;9.23;;;;;;;10.89;100.00;102551.34;6257277;22;20027;-88
2023/09/30 04:28:54;;;;;;;14.60;9.07;;;;;;;10.90;100.00;102547.53;6283484;22;20020;-89
2023/09/30 04:31:23;;;;;;;17.38;10.05;;;;;;;10.91;100.00;102549.06;6283682;22;20484;-89
2023/09/30 04:33:53;;;;;;;14.32;10.25;;;;;;;10.92;100.00;102549.81;6259860;22;20023;-89
2023/09/30 04:36:21;;;;;;;14.80;9.40;;;;;;;10.90;100.00;102555.53;6288916;22;20023;-88
2023/09/30 04:38:48;;;;;;;17.70;10.30;;;;;;;10.90;100.00;102552.88;6261088;22;20103;-89
2023/09/30 04:41:15;;;;;;;15.75;10.10;;;;;;;10.88;100.00;102559.75;6282489;22;20016;-89
2023/09/30 04:43:43;;;;;;;16.20;9.90;;;;;;;10.88;100.00;102562.41;6255043;22;20807;-88
2023/09/30 04:46:12;;;;;;;13.82;10.13;;;;;;;10.87;100.00;102563.56;6279756;22;20074;-88
2023/09/30 04:48:40;;;;;;;12.00;9.68;;;;;;;10.88;100.00;102562.41;6279630;22;20020;-88
2023/09/30 04:51:08;;;;;;;12.85;10.45;;;;;;;10.87;100.00;102555.56;6279087;22;20063;-88
2023/09/30 04:53:35;;;;;;;14.90;10.45;;;;;;;10.85;100.00;102557.88;6279207;22;20457;-88
2023/09/30 04:56:03;;;;;;;16.52;10.55;;;;;;;10.82;100.00;102553.34;6279324;22;20017;-88
2023/09/30 04:58:29;;;;;;;12.57;10.15;;;;;;;10.82;100.00;102566.66;6282136;22;20756;-87
2023/09/30 05:00:57;;;;;;;16.45;10.82;;;;;;;10.83;100.00;102568.16;6258102;22;20122;-87
2023/09/30 05:03:24;;;;;;;15.27;10.85;;;;;;;10.82;100.00;102566.66;6260717;22;20098;-89
2023/09/30 05:05:55;;;;;;;16.75;11.25;;;;;;;10.83;100.00;102573.50;6282655;22;20012;-89
2023/09/30 05:08:24;;;;;;;16.02;10.73;;;;;;;10.85;100.00;102576.53;6282351;22;20027;-88
2023/09/30 05:10:55;;;;;;;14.43;10.32;;;;;;;10.84;100.00;102570.44;6257113;22;20024;-88
2023/09/30 05:13:23;;;;;;;17.47;11.80;;;;;;;10.82;100.00;102575.41;6282131;22;20087;-88
2023/09/30 05:15:51;;;;;;;14.02;10.73;;;;;;;10.81;100.00;102576.56;6286276;22;20016;-88
2023/09/30 05:18:18;;;;;;;17.67;12.27;;;;;;;10.80;100.00;102575.03;6284545;22;20024;-88
2023/09/30 05:20:45;;;;;;;15.57;11.73;;;;;;;10.77;100.00;102569.78;6259800;22;20759;-88
2023/09/30 05:23:12;;;;;;;19.30;11.98;;;;;;;10.75;100.00;102567.50;6265848;22;20067;-87
2023/09/30 05:25:39;;;;;;;16.98;12.43;;;;;;;10.76;100.00;102563.69;6259633;22;20096;-89
2023/09/30 05:28:06;;;;;;;16.02;11.27;;;;;;;10.76;100.00;102558.38;6258175;22;20020;-89
2023/09/30 05:30:33;;;;;;;16.15;11.50;;;;;;;10.76;100.00;102574.34;6259118;22;20020;-89
2023/09/30 05:33:00;;;;;;;15.90;11.52;;;;;;;10.75;100.00;102574.75;6259255;22;20083;-89
2023/09/30 05:35:28;;;;;;;21.20;12.75;;;;;;;10.75;100.00;102578.16;6283979;22;20016;-88
2023/09/30 05:37:55;;;;;;;16.33;12.32;;;;;;;10.72;100.00;102578.19;6257054;22;20004;-88
2023/09/30 05:40:23;;;;;;;20.52;12.75;;;;;;;10.72;100.00;102578.19;6258437;22;20024;-89
2023/09/30 05:42:52;;;;;;;14.98;12.23;;;;;;;10.68;100.00;102576.31;6283059;22;20051;-89
2023/09/30 05:45:19;;;;;;;20.80;12.88;;;;;;;10.68;100.00;102592.31;6255968;22;20032;-89
2023/09/30 05:47:46;;;;;;;17.60;11.75;;;;;;;10.68;100.00;102592.31;6256301;22;20016;-88
2023/09/30 05:50:17;;;;;;;18.83;12.23;;;;;;;10.66;100.00;102588.53;6281556;22;20016;-89
2023/09/30 05:52:46;;;;;;;20.40;12.52;;;;;;;10.64;100.00;102578.25;6255926;22;20458;-90
2023/09/30 05:55:14;;;;;;;19.73;12.07;;;;;;;10.62;100.00;102575.25;6256132;22;20016;-90
2023/09/30 05:57:42;;;;;;;17.90;12.02;;;;;;;10.63;100.00;102581.31;6256003;22;20074;-89
2023/09/30 06:00:28;;;;;;;15.38;11.65;;;;;;;10.64;100.00;102582.84;6255509;22;20079;-88
2023/09/30 06:02:57;;;;;;;21.80;12.65;;;;;;;10.64;100.00;102582.84;6280650;22;20020;-89
2023/09/30 06:05:30;;;;;;;18.38;12.63;;;;;;;10.66;100.00;102583.19;6280834;22;20018;-87
2023/09/30 06:07:57;;;;;;;15.10;11.35;;;;;;;10.65;100.00;102584.34;6282728;22;20016;-89
2023/09/30 06:10:25;;;;;;;16.65;13.23;;;;;;;10.67;100.00;102582.03;6279965;22;20418;-89
2023/09/30 06:12:56;;;;;;;18.65;12.90;;;;;;;10.69;100.00;102585.81;6282046;22;20079;-89
2023/09/30 06:15:28;;;;;;;21.05;12.93;;;;;;;10.74;100.00;102584.66;6280430;22;20020;-86
2023/09/30 06:17:56;;;;;;;19.90;13.77;;;;;;;10.78;100.00;102587.28;6280024;22;20024;-91
2023/09/30 06:20:26;;;;;;;19.40;13.60;;;;;;;10.83;100.00;102578.81;6282713;22;20024;-87
2023/09/30 06:22:55;;;;;;;26.02;13.88;;;;;;;10.89;100.00;102575.34;6282983;22;20016;-92
2023/09/30 06:25:24;;;;;;;20.88;13.40;;;;;;;10.94;100.00;102580.22;6280804;22;20050;-85
2023/09/30 06:27:51;;;;;;;22.45;13.55;;;;;;;10.98;100.00;102574.88;6282611;22;20020;-84
2023/09/30 06:30:22;;;;;;;22.17;13.85;;;;;;;11.04;100.00;102583.94;6281928;22;20040;-88
2023/09/30 06:32:48;;;;;;;22.65;13.98;;;;;;;11.10;100.00;102593.03;6281248;22;20074;-84
2023/09/30 06:35:16;;;;;;;18.55;14.07;;;;;;;11.16;100.00;102596.75;6280000;22;20489;-82
2023/09/30 06:37:45;;;;;;;21.85;14.65;;;;;;;11.26;100.00;102593.19;6284642;22;20020;-85
2023/09/30 06:40:12;;;;;;;26.20;14.43;;;;;;;11.73;100.00;102605.94;6282064;22;20426;-80
2023/09/30 06:42:39;;;;;;;20.52;14.23;;;;;;;12.01;100.00;102608.25;6281159;22;20086;-79
2023/09/30 06:45:07;;;;;;;18.02;13.95;;;;;;;12.05;100.00;102611.63;6280742;22;20016;-79
2023/09/30 06:47:35;;;;;;;23.55;14.55;;;;;;;11.99;100.00;102614.00;6279732;22;20022;-80
2023/09/30 06:50:08;;;;;;;21.08;14.85;;;;;;;11.96;100.00;102620.16;6280723;22;20013;-79
2023/09/30 06:52:36;;;;;;;20.77;14.68;;;;;;;11.98;100.00;102612.50;6280749;22;20016;-80
2023/09/30 06:55:06;;;;;;;16.60;14.07;;;;;;;12.02;100.00;102618.50;6280712;22;20019;-80
2023/09/30 06:57:37;;;;;;;22.70;13.88;;;;;;;12.07;100.00;102622.66;6280268;22;20194;-79
2023/09/30 07:00:09;;;;;;;19.37;14.00;;;;;;;12.11;100.00;102631.34;6280823;22;20023;-79
2023/09/30 07:02:36;;;;;;;20.13;14.85;;;;;;;12.16;100.00;102632.81;6280400;22;20012;-85
2023/09/30 07:05:11;;;;;;;23.95;15.50;;;;;;;12.24;100.00;102645.66;6253767;22;20078;-83
2023/09/30 07:07:39;;;;;;;23.25;14.63;;;;;;;12.32;100.00;102647.06;6280954;22;20512;-79
2023/09/30 07:10:06;;;;;;;20.60;15.20;;;;;;;12.41;100.00;102654.53;6280707;22;20013;-80
2023/09/30 07:12:35;;;;;;;18.25;14.80;;;;;;;12.48;100.00;102651.00;6280536;22;20047;-81
2023/09/30 07:15:06;;;;;;;21.83;14.90;;;;;;;12.57;100.00;102653.94;6280757;22;20394;-81
2023/09/30 07:17:33;;;;;;;19.90;14.95;;;;;;;12.65;100.00;102661.44;6278299;22;20031;-82
2023/09/30 07:20:02;;;;;;;20.40;14.93;;;;;;;12.73;100.00;102662.06;6280598;22;20074;-82
2023/09/30 07:22:28;;;;;;;20.15;15.13;;;;;;;12.83;100.00;102657.69;6279875;22;20504;-82
2023/09/30 07:25:09;;;;;;;23.40;14.65;;;;;;;12.97;100.00;102654.75;6279426;22;20187;-85
2023/09/30 07:27:36;;;;;;;18.67;14.50;;;;;;;13.08;100.00;102655.34;6280576;22;20020;-84
2023/09/30 07:30:06;;;;;;;21.88;15.00;;;;;;;13.21;100.00;102658.16;6281453;22;20446;-88
2023/09/30 07:32:33;;;;;;;19.52;13.93;;;;;;;13.31;100.00;102668.66;6280629;22;20071;-81
2023/09/30 07:34:59;;;;;;;21.27;14.68;;;;;;;13.39;100.00;102674.63;6280041;22;20023;-81
2023/09/30 07:37:26;;;;;;;21.33;13.63;;;;;;;13.52;100.00;102677.44;6282853;22;20440;-82
2023/09/30 07:39:52;;;;;;;24.77;13.45;;;;;;;13.62;100.00;102677.22;6284706;22;20098;-82
2023/09/30 07:42:19;;;;;;;19.05;12.82;;;;;;;13.72;100.00;102674.75;6281623;22;20024;-81
2023/09/30 07:44:46;;;;;;;21.23;14.68;;;;;;;13.84;100.00;102672.19;6280648;22;20020;-80
2023/09/30 07:47:12;;;;;;;24.73;14.15;;;;;;;13.90;100.00;102678.56;6280434;22;20450;-85
2023/09/30 07:49:39;;;;;;;22.77;13.98;;;;;;;14.00;100.00;102685.59;6279217;22;20772;-81
2023/09/30 07:52:06;;;;;;;17.02;13.38;;;;;;;14.16;100.00;102692.91;6280178;22;20074;-83
2023/09/30 07:54:33;;;;;;;21.95;13.55;;;;;;;14.25;100.00;102693.09;6280385;22;20480;-82
2023/09/30 07:57:00;;;;;;;19.85;13.20;;;;;;;14.31;100.00;102690.66;6280645;22;20016;-82
2023/09/30 07:59:27;;;;;;;18.30;12.82;;;;;;;14.43;100.00;102691.94;6279422;22;20012;-82
2023/09/30 08:01:53;;;;;;;18.75;12.50;;;;;;;14.54;100.00;102693.19;6280578;22;20013;-82
2023/09/30 08:04:20;;;;;;;21.77;12.77;;;;;;;14.66;100.00;102686.41;6279861;22;20016;-81
2023/09/30 08:06:47;;;;;;;20.05;12.45;;;;;;;14.80;100.00;102690.66;6280821;22;20469;-81
2023/09/30 08:09:14;;;;;;;18.25;12.15;;;;;;;14.87;100.00;102685.88;6278740;22;20446;-80
2023/09/30 08:11:40;;;;;;;15.40;11.65;;;;;;;14.95;100.00;102673.03;6278575;22;20063;-80
2023/09/30 08:14:09;;;;;;;18.20;11.88;;;;;;;15.02;100.00;102670.91;6278241;22;20018;-80
2023/09/30 08:16:36;;;;;;;18.30;11.63;;;;;;;15.15;100.00;102676.34;6280254;22;20100;-80
2023/09/30 08:19:04;;;;;;;15.23;11.50;;;;;;;15.30;100.00;102676.69;6279829;22;20040;-81
2023/09/30 08:21:31;;;;;;;20.15;12.02;;;;;;;15.42;100.00;102672.53;6277719;22;20472;-81
2023/09/30 08:23:58;;;;;;;21.13;11.57;;;;;;;15.50;100.00;102669.25;6280171;22;20016;-80
2023/09/30 08:26:24;;;;;;;22.67;11.10;;;;;;;15.63;100.00;102664.66;6279620;22;20027;-80
2023/09/30 08:28:51;;;;;;;16.42;10.85;;;;;;;15.72;100.00;102653.28;6279309;22;20389;-81
2023/09/30 08:31:18;;;;;;;16.67;10.55;;;;;;;15.77;100.00;102654.69;6279880;22;20016;-83
2023/09/30 08:33:45;;;;;;;16.77;10.18;;;;;;;15.87;100.00;102664.34;6280947;22;20012;-79
2023/09/30 08:36:12;;;;;;;20.38;10.45;;;;;;;15.99;100.00;102677.03;6280741;22;20020;-81
2023/09/30 08:38:43;;;;;;;16.75;10.48;;;;;;;16.08;99.54;102660.25;6281251;22;20013;-81
2023/09/30 08:41:16;;;;;;;16.17;10.65;;;;;;;16.16;96.48;102670.34;6281286;22;20123;-81
2023/09/30 08:43:44;;;;;;;13.27;9.50;;;;;;;16.32;98.10;102674.88;6280970;22;20016;-83
2023/09/30 08:46:10;;;;;;;20.10;9.35;;;;;;;16.47;95.61;102683.19;6253794;22;20064;-79
2023/09/30 08:48:37;;;;;;;16.83;9.55;;;;;;;16.63;95.83;102686.50;6280716;22;20013;-79
2023/09/30 08:51:04;;;;;;;15.20;9.68;;;;;;;16.73;93.98;102678.56;6281759;22;20039;-80
2023/09/30 08:53:31;;;;;;;15.57;9.38;;;;;;;16.88;92.53;102676.88;6280899;22;20016;-81
2023/09/30 08:56:04;;;;;;;18.05;8.35;;;;;;;16.98;91.77;102675.75;6280832;22;20047;-80
2023/09/30 08:58:32;;;;;;;13.52;8.57;;;;;;;17.09;90.84;102676.16;6280151;22;20074;-80
2023/09/30 09:00:59;;;;;;;11.30;8.77;;;;;;;17.20;91.11;102686.50;6281259;22;20023;-79
2023/09/30 09:03:27;;;;;;;14.70;8.57;;;;;;;17.38;91.47;102683.94;6280665;22;20431;-80
2023/09/30 09:06:00;;;;;;;13.60;8.68;;;;;;;17.43;89.15;102688.03;6281144;22;20016;-80
2023/09/30 09:08:26;;;;;;;16.58;8.93;;;;;;;17.51;89.30;102689.28;6281044;22;20019;-80
2023/09/30 09:10:58;;;;;;;15.55;8.18;;;;;;;17.65;89.44;102684.13;6281440;22;20019;-81
2023/09/30 09:13:25;;;;;;;11.38;7.70;;;;;;;17.72;86.28;102688.50;6279758;22;20050;-81
2023/09/30 09:16:07;;;;;;;9.75;7.35;;;;;;;17.85;87.90;102693.78;6281005;22;20394;-81
2023/09/30 09:18:36;;;;;;;13.73;8.02;;;;;;;17.98;86.73;102707.94;6281891;22;20083;-85
2023/09/30 09:21:10;;;;;;;11.20;7.30;;;;;;;18.17;86.45;102712.16;6282454;22;20066;-84
2023/09/30 09:23:42;;;;;;;11.23;7.05;;;;;;;18.33;85.86;102721.97;6281807;22;20023;-85
2023/09/30 09:26:10;;;;;;;14.80;7.75;;;;;;;18.46;85.27;102724.50;6278834;22;20092;-81
2023/09/30 09:28:39;;;;;;;9.98;7.07;;;;;;;18.61;83.82;102722.78;6280336;22;20017;-81
2023/09/30 09:31:26;;;;;;;20.23;7.70;;;;;;;18.72;84.02;102727.75;6280162;22;20017;-83
2023/09/30 09:33:53;;;;;;;14.90;7.28;;;;;;;18.76;81.80;102733.75;6279868;22;20016;-82
2023/09/30 09:36:20;;;;;;;10.90;6.82;;;;;;;18.53;81.14;102738.47;6280564;22;20070;-82
2023/09/30 09:38:54;;;;;;;12.00;6.82;;;;;;;18.42;81.64;102732.75;6281465;22;20018;-83
2023/09/30 09:41:20;;;;;;;14.02;6.97;;;;;;;18.54;82.43;102733.81;6280147;22;20027;-83
2023/09/30 09:43:51;;;;;;;10.85;6.00;;;;;;;18.68;80.54;102725.19;6281012;22;20018;-84
2023/09/30 09:46:18;;;;;;;9.82;5.72;;;;;;;18.87;78.80;102737.47;6280739;22;20020;-84
2023/09/30 09:48:47;;;;;;;10.18;5.20;;;;;;;18.76;78.41;102734.50;6279606;22;20464;-82
2023/09/30 09:51:14;;;;;;;7.38;4.80;;;;;;;18.66;79.07;102741.06;6280886;22;20083;-91
2023/09/30 09:53:42;;;;;;;7.72;4.60;;;;;;;18.60;79.45;102740.16;6253812;22;20020;-81
2023/09/30 09:56:12;;;;;;;8.23;4.63;;;;;;;18.55;79.36;102736.06;6279899;22;20441;-80
2023/09/30 09:58:42;;;;;;;9.73;5.18;;;;;;;18.40;78.00;102734.38;6280737;22;20017;-78
2023/09/30 10:01:10;;;;;;;10.68;5.15;;;;;;;18.60;78.75;102738.22;6280818;22;20027;-79
2023/09/30 10:03:38;;;;;;;8.57;4.93;;;;;;;18.84;77.71;102740.31;6280221;22;20016;-78
2023/09/30 10:06:06;;;;;;;8.63;4.70;;;;;;;18.99;78.91;102746.63;6280801;22;20074;-78
2023/09/30 10:08:42;;;;;;;8.88;4.90;;;;;;;19.17;77.04;102752.03;6280706;22;20012;-78
2023/09/30 10:11:17;;;;;;;8.82;4.40;;;;;;;19.25;75.80;102747.81;6280404;22;20012;-78
2023/09/30 10:13:50;;;;;;;9.07;4.50;;;;;;;19.29;73.75;102736.88;6279309;22;20019;-77
2023/09/30 10:16:52;;;;;;;9.23;4.30;;;;;;;19.40;75.34;102725.59;6279077;22;20074;-79
2023/09/30 10:19:24;;;;;;;8.02;4.40;;;;;;;19.44;73.09;102729.66;6186244;23;20026;-78
2023/09/30 10:22:15;;;;;;;5.45;3.47;;;;;;;19.42;73.30;102726.66;6186305;23;20026;-81
2023/09/30 10:24:42;;;;;;;7.72;3.50;;;;;;;19.43;70.77;102722.00;6186190;23;20025;-78
2023/09/30 10:27:24;;;;;;;9.68;3.47;;;;;;;19.41;71.20;102721.69;6186031;23;20502;-78
2023/09/30 10:29:59;;;;;;;7.30;3.58;;;;;;;19.42;71.69;102721.25;6161518;23;20018;-79
2023/09/30 10:33:01;;;;;;;8.75;3.85;;;;;;;19.50;73.18;102708.19;6186129;23;20041;-78
2023/09/30 10:35:27;;;;;;;7.88;3.50;;;;;;;19.38;70.75;102709.09;6155710;23;20018;-79
2023/09/30 10:38:22;;;;;;;11.55;4.53;;;;;;;19.26;73.22;102705.38;6131881;23;20480;-79
2023/09/30 10:40:52;;;;;;;7.10;3.95;;;;;;;19.21;73.07;102701.31;6132259;23;20018;-78
2023/09/30 10:43:41;;;;;;;8.18;3.80;;;;;;;19.12;72.54;102704.06;6157996;23;20041;-80
2023/09/30 10:46:26;;;;;;;13.60;4.00;;;;;;;19.01;72.46;102703.75;6132919;23;20025;-80
2023/09/30 10:48:53;;;;;;;8.20;4.20;;;;;;;18.94;72.46;102702.09;6156991;23;20022;-79
2023/09/30 10:51:23;;;;;;;7.53;3.92;;;;;;;18.94;73.67;102709.44;6131720;23;20018;-85
2023/09/30 10:53:53;;;;;;;8.23;3.40;;;;;;;18.99;71.45;102698.81;6213843;22;20020;-90
2023/09/30 10:56:20;;;;;;;8.60;3.45;;;;;;;18.93;71.08;102702.56;6255020;22;20282;-90
2023/09/30 10:58:53;;;;;;;9.95;3.40;;;;;;;19.04;71.97;102702.84;6253684;22;20024;-85
2023/09/30 11:01:24;;;;;;;6.55;3.67;;;;;;;19.10;70.10;102701.06;6278382;22;20020;-88
2023/09/30 11:04:04;;;;;;;8.00;3.38;;;;;;;19.07;70.78;102712.00;6279009;22;20448;-88
2023/09/30 11:06:32;;;;;;;8.60;3.47;;;;;;;19.11;69.95;102696.41;6253042;22;20040;-88
2023/09/30 11:09:02;;;;;;;13.13;3.50;;;;;;;19.19;71.43;102700.31;6278647;22;20025;-88
2023/09/30 11:11:37;;;;;;;9.63;3.50;;;;;;;19.21;69.85;102695.91;6279290;22;20458;-87
2023/09/30 11:14:32;;;;;;;7.82;3.70;;;;;;;19.07;70.25;102695.81;6280198;22;20027;-88
2023/09/30 11:17:03;;;;;;;6.78;3.08;;;;;;;18.95;70.17;102698.22;6282220;22;20114;-88
2023/09/30 11:19:46;;;;;;;8.23;2.97;;;;;;;18.94;70.94;102707.50;6279185;22;20102;-88